Terminal Aerodrome Forecast
Issued by NWS Louisville, KY

Home | Current Version | Previous Version | Text Only | Print | Product List | Glossary On
Versions: 1 2 3 4 5 6 7 8 9 10 11 12 13 14
409
FTUS43 KLMK 140520
TAFSDF
TAF
KSDF 140520Z 1406/1512 08006KT P6SM BKN100
     FM141400 12007KT 6SM -SN BKN040
     FM142000 13008KT 2SM -SN BKN009
      TEMPO 1420/1424 1SM -SN BKN006
     FM150000 16007KT 4SM -SN BKN010=

USA.gov is the U.S. government's official web portal to all federal, state and local government web resources and services.